Impacts METAR Board INFO
IDs:

KDEN - Denver Intl, CO, US

Updated at: 1958 UTC 17 Jan 2018
Potential Impact None Slight Moderate High
Time17/07Z 17/08Z 17/09Z 17/10Z 17/11Z 17/12Z 17/13Z 17/14Z 17/15Z 17/16Z 17/17Z 17/18Z 17/19Z
VIS10 10 10 10 10 10 10 10 10 10 10 10 10
CIG-- -- -- -- -- -- -- -- -- -- -- -- --
CoverCLRCLRCLRCLRCLRCLRCLRCLRCLRCLRCLRCLRCLR
FltCatVFRVFRVFRVFRVFRVFRVFRVFRVFRVFRVFRVFRVFR
WX--------------------------
WDir2202402502300031002202302302500
WSpd5 5 3 3 0 0 3 0 5 7 7 8 3
WGst-- -- -- -- -- -- -- -- -- -- -- -- --
Raw hourly METARs
KDEN 170653Z 22005KT 10SM CLR M08/M14 A3021 RMK AO2 SLP267 T10781139 400111200
KDEN 170753Z 24005KT 10SM CLR M08/M14 A3020 RMK AO2 SLP260 T10781144
KDEN 170853Z 25003KT 10SM CLR M08/M15 A3020 RMK AO2 SLP258 T10781150 55009
KDEN 170953Z 23003KT 10SM CLR M08/M15 A3021 RMK AO2 SLP258 T10781150
KDEN 171053Z 00000KT 10SM CLR M07/M14 A3020 RMK AO2 SLP253 T10671139
KDEN 171153Z 00000KT 10SM CLR M07/M14 A3020 RMK AO2 SLP264 T10721144 11061 21089 51001
KDEN 171253Z 31003KT 10SM CLR M08/M14 A3021 RMK AO2 SLP276 T10831144
KDEN 171353Z 00000KT 10SM CLR M08/M14 A3023 RMK AO2 SLP282 T10781139
KDEN 171453Z 22005KT 10SM CLR M08/M13 A3025 RMK AO2 SLP286 T10781133 53013
KDEN 171553Z 23007KT 10SM CLR M03/M12 A3027 RMK AO2 SLP284 T10331117
KDEN 171653Z 23007KT 10SM CLR 00/M12 A3030 RMK AO2 SLP292 T00001117
KDEN 171753Z 25008KT 10SM CLR 03/M11 A3031 RMK AO2 SLP286 T00331111 10033 21094 51018
KDEN 171853Z VRB03KT 10SM CLR 06/M12 A3029 RMK AO2 SLP277 T00561122